createdAt,value
2022-09-12T00:00:23.038Z,0.30
2022-09-12T00:02:52.809Z,0.30
2022-09-12T00:05:20.595Z,0.40
2022-09-12T00:07:48.022Z,0.38
2022-09-12T00:10:15.586Z,0.30
2022-09-12T00:12:43.050Z,0.40
2022-09-12T00:15:11.530Z,0.35
2022-09-12T00:17:40.370Z,0.50
2022-09-12T00:20:09.066Z,0.30
2022-09-12T00:22:36.926Z,0.40
2022-09-12T00:25:04.747Z,0.40
2022-09-12T00:27:34.115Z,0.30
2022-09-12T00:30:01.570Z,0.30
2022-09-12T00:32:29.083Z,0.30
2022-09-12T00:34:57.887Z,0.40
2022-09-12T00:37:25.306Z,0.40
2022-09-12T00:39:53.558Z,0.30
2022-09-12T00:42:21.075Z,0.30
2022-09-12T00:44:50.241Z,0.35
2022-09-12T00:47:20.108Z,0.40
2022-09-12T00:49:49.633Z,0.40
2022-09-12T00:52:22.395Z,0.30
2022-09-12T00:54:52.957Z,0.30
2022-09-12T00:57:21.591Z,0.40
2022-09-12T00:59:50.663Z,0.38
2022-09-12T01:02:18.281Z,0.30
2022-09-12T01:04:47.692Z,0.40
2022-09-12T01:07:16.009Z,0.30
2022-09-12T01:09:45.704Z,0.40
2022-09-12T01:12:15.690Z,0.40
2022-09-12T01:14:43.233Z,0.40
2022-09-12T01:17:12.546Z,0.40
2022-09-12T01:20:10.285Z,0.40
2022-09-12T01:22:47.016Z,0.40
2022-09-12T01:25:21.136Z,0.30
2022-09-12T01:27:53.420Z,0.40
2022-09-12T01:30:28.775Z,0.30
2022-09-12T01:33:00.923Z,0.38
2022-09-12T01:35:31.794Z,0.40
2022-09-12T01:38:06.445Z,0.40
2022-09-12T01:40:37.278Z,0.40
2022-09-12T01:43:12.094Z,0.40
2022-09-12T01:45:42.194Z,0.40
2022-09-12T01:48:13.070Z,0.40
2022-09-12T01:50:43.721Z,0.40
2022-09-12T01:53:15.210Z,0.50
2022-09-12T01:55:45.039Z,0.30
2022-09-12T01:58:14.311Z,0.40
2022-09-12T02:01:07.728Z,0.35
2022-09-12T02:03:40.971Z,0.40
2022-09-12T02:06:11.074Z,0.40
2022-09-12T02:08:41.178Z,0.43
2022-09-12T02:11:10.207Z,0.50
2022-09-12T02:13:40.835Z,0.45
2022-09-12T02:16:10.678Z,0.40
2022-09-12T02:18:41.260Z,0.32
2022-09-12T02:21:08.931Z,0.45
2022-09-12T02:23:39.347Z,0.40
2022-09-12T02:26:09.044Z,0.40
2022-09-12T02:28:42.968Z,0.40
2022-09-12T02:31:13.880Z,0.35
2022-09-12T02:33:46.321Z,0.47
2022-09-12T02:36:24.497Z,0.40
2022-09-12T02:38:51.945Z,0.50
2022-09-12T02:41:20.555Z,0.30
2022-09-12T02:43:48.637Z,0.40
2022-09-12T02:46:18.741Z,0.50
2022-09-12T02:48:47.722Z,0.40
2022-09-12T02:51:18.242Z,0.30
2022-09-12T02:53:47.838Z,0.30
2022-09-12T02:56:19.210Z,0.30
2022-09-12T02:58:47.287Z,0.45
2022-09-12T03:01:20.348Z,0.30
2022-09-12T03:03:58.991Z,0.40
2022-09-12T03:06:31.210Z,0.50
2022-09-12T03:09:01.861Z,0.40
2022-09-12T03:11:44.159Z,0.40
2022-09-12T03:14:20.223Z,0.40
2022-09-12T03:16:54.479Z,0.40
2022-09-12T03:19:26.208Z,0.43
2022-09-12T03:21:58.570Z,0.40
2022-09-12T03:24:30.991Z,0.40
2022-09-12T03:27:02.239Z,0.40
2022-09-12T03:29:30.426Z,0.40
2022-09-12T03:31:58.737Z,0.40
2022-09-12T03:34:28.112Z,0.40
2022-09-12T03:36:55.915Z,0.40
2022-09-12T03:39:24.247Z,0.50
2022-09-12T03:41:51.986Z,0.40
2022-09-12T03:44:19.771Z,0.40
2022-09-12T03:46:47.304Z,0.35
2022-09-12T03:49:14.912Z,0.40
2022-09-12T03:51:44.005Z,0.40
2022-09-12T03:54:11.924Z,0.40
2022-09-12T03:56:41.486Z,0.45
2022-09-12T03:59:09.293Z,0.50
2022-09-12T04:01:37.769Z,0.40
2022-09-12T04:04:05.149Z,0.30
2022-09-12T04:06:32.680Z,0.40
2022-09-12T04:09:01.511Z,0.35
2022-09-12T04:11:29.041Z,0.40
2022-09-12T04:13:56.534Z,0.40
2022-09-12T04:16:24.069Z,0.50
2022-09-12T04:18:51.490Z,0.40
2022-09-12T04:21:22.765Z,0.40
2022-09-12T04:23:50.486Z,0.40
2022-09-12T04:26:23.073Z,0.40
2022-09-12T04:29:18.827Z,0.40
2022-09-12T04:31:48.907Z,0.40
2022-09-12T04:34:16.414Z,0.40
2022-09-12T04:36:43.955Z,0.35
2022-09-12T04:39:12.183Z,0.40
2022-09-12T04:41:41.736Z,0.40
2022-09-12T04:44:11.522Z,0.40
2022-09-12T04:46:40.236Z,0.40
2022-09-12T04:49:07.711Z,0.40
2022-09-12T04:51:36.285Z,0.40
2022-09-12T04:54:05.694Z,0.30
2022-09-12T04:56:34.297Z,0.40
2022-09-12T04:59:03.092Z,0.45
2022-09-12T05:01:30.951Z,0.30
2022-09-12T05:03:59.837Z,0.40
2022-09-12T05:06:28.856Z,0.40
2022-09-12T05:08:57.337Z,0.40
2022-09-12T05:11:36.775Z,0.30
2022-09-12T05:14:15.016Z,0.40
2022-09-12T05:16:46.064Z,0.30
2022-09-12T05:19:16.109Z,0.40
2022-09-12T05:21:43.561Z,0.40
2022-09-12T05:24:11.608Z,0.30
2022-09-12T05:26:39.038Z,0.40
2022-09-12T05:29:07.001Z,0.38
2022-09-12T05:31:35.841Z,0.40
2022-09-12T05:34:04.578Z,0.40
2022-09-12T05:36:32.113Z,0.30
2022-09-12T05:39:00.625Z,0.30
2022-09-12T05:41:29.380Z,0.30
2022-09-12T05:43:57.448Z,0.30
2022-09-12T05:46:26.192Z,0.20
2022-09-12T05:48:56.555Z,0.20
2022-09-12T05:51:25.386Z,0.30
2022-09-12T05:53:54.198Z,0.20
2022-09-12T05:56:22.847Z,0.10
2022-09-12T05:58:53.859Z,0.10
2022-09-12T06:01:21.646Z,0.10
2022-09-12T06:03:49.838Z,0.10
2022-09-12T06:06:20.103Z,0.17
2022-09-12T06:08:48.256Z,0.10
2022-09-12T06:11:16.838Z,0.03
2022-09-12T06:13:44.531Z,0.10
2022-09-12T06:16:16.410Z,0.00
2022-09-12T06:18:48.003Z,0.10
2022-09-12T06:21:15.551Z,0.10
2022-09-12T06:23:45.924Z,0.00
2022-09-12T06:26:13.831Z,0.00
2022-09-12T06:28:41.814Z,0.00
2022-09-12T06:31:10.864Z,0.00
2022-09-12T06:33:39.656Z,0.10
2022-09-12T06:36:12.097Z,0.00
2022-09-12T06:38:39.964Z,0.00
2022-09-12T06:41:09.695Z,0.00
2022-09-12T06:43:37.243Z,0.00
2022-09-12T06:46:05.181Z,0.00
2022-09-12T06:48:33.194Z,0.00
2022-09-12T06:51:01.209Z,0.00
2022-09-12T06:53:29.948Z,0.00
2022-09-12T06:55:57.981Z,0.00
2022-09-12T06:58:27.157Z,0.00
2022-09-12T07:00:58.963Z,0.03
2022-09-12T07:03:26.577Z,0.00
2022-09-12T07:05:53.968Z,0.00
2022-09-12T07:08:21.441Z,0.00
2022-09-12T07:10:48.914Z,0.00
2022-09-12T07:13:19.863Z,0.00
2022-09-12T07:15:49.058Z,0.00
2022-09-12T07:18:16.474Z,0.00
2022-09-12T07:20:43.933Z,0.00
2022-09-12T07:23:11.367Z,0.00
2022-09-12T07:25:38.835Z,0.00
2022-09-12T07:28:06.349Z,0.00
2022-09-12T07:30:33.934Z,0.00
2022-09-12T07:33:02.742Z,0.00
2022-09-12T07:35:33.395Z,0.00
2022-09-12T07:38:00.830Z,0.00
2022-09-12T07:40:28.351Z,0.00
2022-09-12T07:42:55.795Z,0.00
2022-09-12T07:45:23.228Z,0.00
2022-09-12T07:47:53.964Z,0.00
2022-09-12T07:50:22.818Z,0.00
2022-09-12T07:52:50.434Z,0.00
2022-09-12T07:55:18.003Z,0.00
2022-09-12T07:57:45.443Z,0.00
2022-09-12T08:00:13.423Z,0.00
2022-09-12T08:02:41.336Z,0.00
2022-09-12T08:05:09.645Z,0.00
2022-09-12T08:07:38.720Z,0.00
2022-09-12T08:10:06.769Z,0.00
2022-09-12T08:12:34.583Z,0.00
2022-09-12T08:15:02.189Z,0.00
2022-09-12T08:17:29.841Z,0.00
2022-09-12T08:19:57.297Z,0.00
2022-09-12T08:22:27.866Z,0.00
2022-09-12T08:24:56.933Z,0.00
2022-09-12T08:27:24.373Z,0.00
2022-09-12T08:29:51.881Z,0.00
2022-09-12T08:32:19.362Z,0.00
2022-09-12T08:34:46.813Z,0.00
2022-09-12T08:37:14.297Z,0.00
2022-09-12T08:39:41.826Z,0.00
2022-09-12T08:44:45.385Z,0.00
2022-09-12T08:47:19.020Z,0.00
2022-09-12T08:49:51.080Z,0.00
2022-09-12T08:52:22.103Z,0.00
2022-09-12T08:54:50.714Z,0.00
2022-09-12T08:57:19.539Z,0.00
2022-09-12T08:59:48.260Z,0.00
2022-09-12T09:02:24.416Z,0.00
2022-09-12T09:04:52.727Z,0.00
2022-09-12T09:07:29.723Z,0.00
2022-09-12T09:10:04.049Z,0.00
2022-09-12T09:12:37.075Z,0.00
2022-09-12T09:15:09.971Z,0.00
2022-09-12T09:17:40.305Z,0.00
2022-09-12T09:20:11.899Z,0.00
2022-09-12T09:22:42.231Z,0.10
2022-09-12T09:25:14.446Z,0.10
2022-09-12T09:27:45.488Z,0.10
2022-09-12T09:30:17.248Z,0.10
2022-09-12T09:32:46.696Z,0.20
2022-09-12T09:35:16.888Z,0.20
2022-09-12T09:37:45.632Z,0.20
2022-09-12T09:40:19.041Z,0.20
2022-09-12T09:42:53.896Z,0.20
2022-09-12T09:45:24.087Z,0.10
2022-09-12T09:47:53.413Z,0.20
2022-09-12T09:50:20.965Z,0.20
2022-09-12T09:52:48.573Z,0.20
2022-09-12T09:55:18.505Z,0.25
2022-09-12T09:57:46.754Z,0.20
2022-09-12T10:00:30.478Z,0.20
2022-09-12T10:03:18.882Z,0.20
2022-09-12T10:05:47.845Z,0.20
2022-09-12T10:08:21.450Z,0.20
2022-09-12T10:10:53.926Z,0.20
2022-09-12T10:13:24.707Z,0.20
2022-09-12T10:16:00.895Z,0.20
2022-09-12T10:18:35.875Z,0.20
2022-09-12T10:21:03.558Z,0.10
2022-09-12T10:23:33.243Z,0.20
2022-09-12T10:26:01.821Z,0.20
2022-09-12T10:28:32.967Z,0.20
2022-09-12T10:31:02.651Z,0.20
2022-09-12T10:33:31.603Z,0.20
2022-09-12T10:35:59.393Z,0.20
2022-09-12T10:38:28.436Z,0.20
2022-09-12T10:40:57.315Z,0.20
2022-09-12T10:43:27.543Z,0.20
2022-09-12T10:45:58.054Z,0.30
2022-09-12T10:48:29.164Z,0.20
2022-09-12T10:50:57.714Z,0.20
2022-09-12T10:53:28.127Z,0.20
2022-09-12T10:56:02.860Z,0.20
2022-09-12T10:58:51.096Z,0.10
2022-09-12T11:01:26.555Z,0.20
2022-09-12T11:04:05.308Z,0.20
2022-09-12T11:06:38.444Z,0.20
2022-09-12T11:09:10.917Z,0.20
2022-09-12T11:11:43.205Z,0.15
2022-09-12T11:14:19.065Z,0.20
2022-09-12T11:16:50.165Z,0.20
2022-09-12T11:19:38.282Z,0.20
2022-09-12T11:22:12.721Z,0.10
2022-09-12T11:24:45.693Z,0.20
2022-09-12T11:27:23.643Z,0.10
2022-09-12T11:29:58.866Z,0.20
2022-09-12T11:32:53.294Z,0.20
2022-09-12T11:35:25.680Z,0.20
2022-09-12T11:38:03.494Z,0.20
2022-09-12T11:40:34.492Z,0.20
2022-09-12T11:43:08.678Z,0.20
2022-09-12T11:45:38.445Z,0.20
2022-09-12T11:48:08.495Z,0.15
2022-09-12T11:50:37.803Z,0.20
2022-09-12T11:53:08.386Z,0.30
2022-09-12T11:55:40.537Z,0.20
2022-09-12T11:58:09.547Z,0.20
2022-09-12T12:00:38.983Z,0.20
2022-09-12T12:03:08.894Z,0.20
2022-09-12T12:05:41.387Z,0.20
2022-09-12T12:08:09.406Z,0.10
2022-09-12T12:10:38.748Z,0.20
2022-09-12T12:13:11.983Z,0.20
2022-09-12T12:15:45.591Z,0.20
2022-09-12T12:18:17.888Z,0.20
2022-09-12T12:20:46.840Z,0.20
2022-09-12T12:23:23.628Z,0.20
2022-09-12T12:25:55.208Z,0.20
2022-09-12T12:29:01.857Z,0.20
2022-09-12T12:31:29.697Z,0.20
2022-09-12T12:34:05.013Z,0.25
2022-09-12T12:36:40.269Z,0.20
2022-09-12T12:39:26.273Z,0.20
2022-09-12T12:41:53.690Z,0.20
2022-09-12T12:44:39.027Z,0.20
2022-09-12T12:47:14.922Z,0.20
2022-09-12T12:49:42.653Z,0.20
2022-09-12T12:52:19.333Z,0.20
2022-09-12T12:54:51.950Z,0.20
2022-09-12T12:57:21.221Z,0.20
2022-09-12T12:59:50.889Z,0.20
2022-09-12T13:02:24.118Z,0.20
2022-09-12T13:04:51.810Z,0.20
2022-09-12T13:07:28.626Z,0.10
2022-09-12T13:09:57.318Z,0.20
2022-09-12T13:12:26.078Z,0.10
2022-09-12T13:14:58.190Z,0.20
2022-09-12T13:17:36.545Z,0.10
2022-09-12T13:20:26.686Z,0.10
2022-09-12T13:22:56.695Z,0.10
2022-09-12T13:25:28.842Z,0.20
2022-09-12T13:28:04.153Z,0.20
2022-09-12T13:30:32.727Z,0.20
2022-09-12T13:33:06.136Z,0.10
2022-09-12T13:35:41.086Z,0.10
2022-09-12T13:38:13.849Z,0.10
2022-09-12T13:40:45.233Z,0.15
2022-09-12T13:43:15.839Z,0.20
2022-09-12T13:45:44.657Z,0.20
2022-09-12T13:48:14.344Z,0.10
2022-09-12T13:50:43.744Z,0.20
2022-09-12T13:53:16.957Z,0.20
2022-09-12T13:55:47.961Z,0.20
2022-09-12T13:58:20.813Z,0.20
2022-09-12T14:00:48.272Z,0.10
2022-09-12T14:03:44.333Z,0.10
2022-09-12T14:06:12.577Z,0.20
2022-09-12T14:08:42.038Z,0.20
2022-09-12T14:11:10.969Z,0.10
2022-09-12T14:13:39.665Z,0.20
2022-09-12T14:16:08.982Z,0.10
2022-09-12T14:18:37.790Z,0.17
2022-09-12T14:21:10.363Z,0.10
2022-09-12T14:23:40.933Z,0.20
2022-09-12T14:26:12.150Z,0.10
2022-09-12T14:28:40.906Z,0.10
2022-09-12T14:31:21.364Z,0.10
2022-09-12T14:33:50.036Z,0.10
2022-09-12T14:36:19.698Z,0.10
2022-09-12T14:38:50.055Z,0.10
2022-09-12T14:41:24.098Z,0.10
2022-09-12T14:43:53.299Z,0.20
2022-09-12T14:46:23.909Z,0.10
2022-09-12T14:48:53.003Z,0.10
2022-09-12T14:51:22.167Z,0.10
2022-09-12T14:53:49.932Z,0.10
2022-09-12T14:56:17.863Z,0.10
2022-09-12T14:58:46.675Z,0.10
2022-09-12T15:01:25.594Z,0.13
2022-09-12T15:03:54.171Z,0.10
2022-09-12T15:06:23.232Z,0.13
2022-09-12T15:08:50.852Z,0.20
2022-09-12T15:11:18.832Z,0.10
2022-09-12T15:13:47.941Z,0.10
2022-09-12T15:16:16.061Z,0.10
2022-09-12T15:18:43.574Z,0.10
2022-09-12T15:21:13.818Z,0.10
2022-09-12T15:23:42.980Z,0.10
2022-09-12T15:26:12.045Z,0.10
2022-09-12T15:28:39.529Z,0.10
2022-09-12T15:31:11.425Z,0.10
2022-09-12T15:33:38.997Z,0.20
2022-09-12T15:36:12.787Z,0.10
2022-09-12T15:38:40.205Z,0.20
2022-09-12T15:41:11.150Z,0.10
2022-09-12T15:43:38.582Z,0.10
2022-09-12T15:46:06.813Z,0.20
2022-09-12T15:48:35.630Z,0.17
2022-09-12T15:51:04.818Z,0.10
2022-09-12T15:53:32.267Z,0.20
2022-09-12T15:55:59.766Z,0.20
2022-09-12T15:58:27.215Z,0.10
2022-09-12T16:00:54.671Z,0.10
2022-09-12T16:03:23.719Z,0.10
2022-09-12T16:05:56.045Z,0.20
2022-09-12T16:08:23.536Z,0.10
2022-09-12T16:10:53.995Z,0.20
2022-09-12T16:13:21.435Z,0.20
2022-09-12T16:15:48.985Z,0.10
2022-09-12T16:18:16.810Z,0.10
2022-09-12T16:20:44.328Z,0.20
2022-09-12T16:23:13.447Z,0.10
2022-09-12T16:25:41.592Z,0.10
2022-09-12T16:28:09.136Z,0.10
2022-09-12T16:30:36.972Z,0.20
2022-09-12T16:33:05.283Z,0.10
2022-09-12T16:35:33.214Z,0.20
2022-09-12T16:38:00.746Z,0.20
2022-09-12T16:40:31.485Z,0.10
2022-09-12T16:42:58.936Z,0.20
2022-09-12T16:45:26.445Z,0.20
2022-09-12T16:47:54.193Z,0.20
2022-09-12T16:50:21.680Z,0.20
2022-09-12T16:52:49.369Z,0.20
2022-09-12T16:55:16.833Z,0.20
2022-09-12T16:57:45.897Z,0.20
2022-09-12T17:00:14.169Z,0.20
2022-09-12T17:02:41.670Z,0.20
2022-09-12T17:05:09.534Z,0.20
2022-09-12T17:07:36.959Z,0.15
2022-09-12T17:10:04.547Z,0.10
2022-09-12T17:12:32.002Z,0.20
2022-09-12T17:15:00.825Z,0.20
2022-09-12T17:17:28.249Z,0.10
2022-09-12T17:19:55.827Z,0.28
2022-09-12T17:22:23.263Z,0.20
2022-09-12T17:24:50.711Z,0.10
2022-09-12T17:27:18.138Z,0.20
2022-09-12T17:29:45.559Z,0.20
2022-09-12T17:32:17.443Z,0.25
2022-09-12T17:34:45.103Z,0.20
2022-09-12T17:37:13.446Z,0.20
2022-09-12T17:39:41.223Z,0.20
2022-09-12T17:42:08.815Z,0.20
2022-09-12T17:44:37.058Z,0.30
2022-09-12T17:47:06.096Z,0.30
2022-09-12T17:49:34.968Z,0.20
2022-09-12T17:52:03.680Z,0.20
2022-09-12T17:54:31.229Z,0.20
2022-09-12T17:56:59.308Z,0.30
2022-09-12T17:59:26.748Z,0.20
2022-09-12T18:02:11.945Z,0.20
2022-09-12T18:04:41.551Z,0.20
2022-09-12T18:07:09.039Z,0.20
2022-09-12T18:09:37.279Z,0.30
2022-09-12T18:12:05.176Z,0.20
2022-09-12T18:14:32.739Z,0.20
2022-09-12T18:17:00.539Z,0.20
2022-09-12T18:19:28.097Z,0.30
2022-09-12T18:21:57.313Z,0.30
2022-09-12T18:24:25.137Z,0.30
2022-09-12T18:26:52.562Z,0.20
2022-09-12T18:29:20.048Z,0.30
2022-09-12T18:31:47.675Z,0.20
2022-09-12T18:34:15.554Z,0.30
2022-09-12T18:36:43.315Z,0.20
2022-09-12T18:39:12.615Z,0.20
2022-09-12T18:41:40.299Z,0.20
2022-09-12T18:44:08.474Z,0.20
2022-09-12T18:46:36.548Z,0.30
2022-09-12T18:49:04.581Z,0.20
2022-09-12T18:51:34.603Z,0.30
2022-09-12T18:54:02.919Z,0.30
2022-09-12T18:56:33.306Z,0.30
2022-09-12T18:59:01.307Z,0.20
2022-09-12T19:01:29.641Z,0.30
2022-09-12T19:03:58.964Z,0.20
2022-09-12T19:06:27.701Z,0.30
2022-09-12T19:08:55.703Z,0.30
2022-09-12T19:11:23.611Z,0.20
2022-09-12T19:13:53.109Z,0.30
2022-09-12T19:16:21.729Z,0.30
2022-09-12T19:22:05.373Z,0.20
2022-09-12T19:24:32.789Z,0.30
2022-09-12T19:27:00.220Z,0.20
2022-09-12T19:29:29.069Z,0.20
2022-09-12T19:31:56.521Z,0.30
2022-09-12T19:34:24.197Z,0.30
2022-09-12T19:36:51.640Z,0.30
2022-09-12T19:39:20.129Z,0.30
2022-09-12T19:41:47.920Z,0.20
2022-09-12T19:44:15.552Z,0.20
2022-09-12T19:46:44.365Z,0.20
2022-09-12T19:49:12.790Z,0.20
2022-09-12T19:51:40.430Z,0.20
2022-09-12T19:54:08.235Z,0.30
2022-09-12T19:56:35.714Z,0.20
2022-09-12T19:59:03.170Z,0.30
2022-09-12T20:01:30.664Z,0.20
2022-09-12T20:03:59.805Z,0.30
2022-09-12T20:06:27.637Z,0.30
2022-09-12T20:08:55.360Z,0.20
2022-09-12T20:11:24.092Z,0.20
2022-09-12T20:13:51.799Z,0.30
2022-09-12T20:16:22.017Z,0.20
2022-09-12T20:18:53.563Z,0.30
2022-09-12T20:21:24.990Z,0.30
2022-09-12T20:23:52.493Z,0.30
2022-09-12T20:26:20.734Z,0.20
2022-09-12T20:28:48.300Z,0.20
2022-09-12T20:31:16.629Z,0.30
2022-09-12T20:33:47.507Z,0.30
2022-09-12T20:36:18.309Z,0.30
2022-09-12T20:38:49.492Z,0.30
2022-09-12T20:41:17.453Z,0.20
2022-09-12T20:43:44.902Z,0.30
2022-09-12T20:46:12.628Z,0.22
2022-09-12T20:48:40.462Z,0.25
2022-09-12T20:51:08.261Z,0.30
2022-09-12T20:53:35.813Z,0.30
2022-09-12T20:56:05.288Z,0.20
2022-09-12T20:58:32.834Z,0.30
2022-09-12T21:01:00.653Z,0.30
2022-09-12T21:03:28.081Z,0.30
2022-09-12T21:05:55.543Z,0.20
2022-09-12T21:08:23.021Z,0.30
2022-09-12T21:10:50.439Z,0.30
2022-09-12T21:13:19.235Z,0.30
2022-09-12T21:15:46.711Z,0.20
2022-09-12T21:18:14.838Z,0.30
2022-09-12T21:20:42.280Z,0.30
2022-09-12T21:23:09.703Z,0.20
2022-09-12T21:25:37.191Z,0.30
2022-09-12T21:28:04.603Z,0.30
2022-09-12T21:30:33.380Z,0.30
2022-09-12T21:33:00.863Z,0.30
2022-09-12T21:35:28.270Z,0.30
2022-09-12T21:37:55.764Z,0.30
2022-09-12T21:40:23.630Z,0.30
2022-09-12T21:42:51.253Z,0.30
2022-09-12T21:45:18.964Z,0.30
2022-09-12T21:47:47.796Z,0.30
2022-09-12T21:50:15.431Z,0.30
2022-09-12T21:52:42.992Z,0.30
2022-09-12T21:55:11.106Z,0.22
2022-09-12T21:57:38.711Z,0.30
2022-09-12T22:00:08.420Z,0.20
2022-09-12T22:02:35.892Z,0.30
2022-09-12T22:05:04.977Z,0.20
2022-09-12T22:07:33.073Z,0.30
2022-09-12T22:10:00.543Z,0.30
2022-09-12T22:12:28.737Z,0.30
2022-09-12T22:14:56.399Z,0.20
2022-09-12T22:17:24.246Z,0.30
2022-09-12T22:19:51.720Z,0.30
2022-09-12T22:22:38.025Z,0.20
2022-09-12T22:25:05.968Z,0.30
2022-09-12T22:27:33.401Z,0.30
2022-09-12T22:30:00.890Z,0.30
2022-09-12T22:32:28.366Z,0.30
2022-09-12T22:34:55.829Z,0.30
2022-09-12T22:37:24.570Z,0.30
2022-09-12T22:39:52.536Z,0.30
2022-09-12T22:42:20.015Z,0.20
2022-09-12T22:44:47.475Z,0.30
2022-09-12T22:47:15.260Z,0.30
2022-09-12T22:49:42.684Z,0.30
2022-09-12T22:52:10.160Z,0.30
2022-09-12T22:54:38.955Z,0.30
2022-09-12T22:57:06.576Z,0.30
2022-09-12T22:59:34.604Z,0.30
2022-09-12T23:02:02.011Z,0.30
2022-09-12T23:04:29.827Z,0.30
2022-09-12T23:06:57.292Z,0.32
2022-09-12T23:09:34.717Z,0.30
2022-09-12T23:12:04.793Z,0.30
2022-09-12T23:14:32.241Z,0.38
2022-09-12T23:16:59.742Z,0.30
2022-09-12T23:19:27.222Z,0.40
2022-09-12T23:21:54.677Z,0.30
2022-09-12T23:24:22.373Z,0.30
2022-09-12T23:26:50.091Z,0.40
2022-09-12T23:29:18.893Z,0.30
2022-09-12T23:31:47.131Z,0.30
2022-09-12T23:34:14.585Z,0.30
2022-09-12T23:36:42.042Z,0.38
2022-09-12T23:39:09.973Z,0.40
2022-09-12T23:41:38.056Z,0.30
2022-09-12T23:44:05.529Z,0.40
2022-09-12T23:46:34.418Z,0.30
2022-09-12T23:49:01.890Z,0.30
2022-09-12T23:51:29.589Z,0.30
2022-09-12T23:53:57.042Z,0.30
2022-09-12T23:56:24.486Z,0.30
2022-09-12T23:58:51.913Z,0.30
